Frederick E. Bouchard — WDI7451 — position and weather

sailwx.info

Track history (hours):
 
Tides and Currents Weather Stations Pressure Air Temp Water Temp Dewpoint Dewpoint Depression Visibility Wind Speed Wind Dir Waves Ship Positions

Frederick E. Bouchard

Owner: Tug Frederick E. Bouchard Corp., Melville, NY. More information available from US FCC via Universal Licensing System and Coast Guard Vessel Documentation Center.

Last reported at 2017-Sep-19 06:32 UTC. Time now 2017-Oct-19 05:35 UTC.
Position N 25°18' W 080°05'.
Warning: this ship's position is 29 days out of date.

Length 155 m; draft 7 m.

Type: Tug. MMSI: 367728870.

Date/timePositionNaut miles runAvg speedWind from/ knotsBaromVisibWave heightAir tempDewpointWater temp
2017-Sep-19 06:32N 25°18' W 080°05'0 9.2
2017-Sep-19 06:30N 25°18' W 080°05'4 9.0
2017-Sep-19 06:00N 25°22' W 080°03'5 9.8
2017-Sep-19 05:30N 25°27' W 080°02'510.7
2017-Sep-19 05:00N 25°32' W 080°02'510.6
2017-Sep-19 04:30N 25°38' W 080°02'510.1
2017-Sep-19 04:00N 25°43' W 080°03'5 9.5
2017-Sep-19 03:30N 25°47' W 080°04'5 9.3
2017-Sep-19 03:00N 25°52' W 080°04'5 9.0
2017-Sep-19 02:30N 25°56' W 080°04'4 9.0
2017-Sep-19 02:00N 26°01' W 080°04'5 9.2
2017-Sep-19 01:30N 26°05' W 080°05'2 4.2
2017-Sep-19 01:00N 26°06' W 080°07'0 0.0
2017-Sep-19 00:30N 26°06' W 080°07'0 0.0
2017-Sep-19 00:00N 26°06' W 080°07'0 0.0
2017-Sep-18 15:27N 26°06' W 080°07'0 0.0
2017-Sep-18 14:54N 26°06' W 080°07'0 0.0
2017-Sep-18 14:27N 26°06' W 080°07'0 0.0
2017-Sep-18 13:54N 26°06' W 080°07'0 0.0
2017-Sep-18 13:27N 26°06' W 080°07'0 0.0
2017-Sep-18 12:57N 26°06' W 080°07'0 0.0
2017-Sep-18 12:27N 26°06' W 080°07'0 0.0
2017-Sep-18 12:00N 26°06' W 080°07'0 0.0
2017-Sep-18 11:27N 26°06' W 080°07'0 0.0
2017-Sep-18 11:00N 26°06' W 080°07'0 0.0
2017-Sep-18 10:30N 26°06' W 080°07'0 0.0
2017-Sep-18 10:00N 26°06' W 080°07'0 0.0
2017-Sep-18 09:30N 26°06' W 080°07'0 0.0
2017-Sep-18 08:57N 26°06' W 080°07'0 0.0
2017-Sep-18 08:30N 26°06' W 080°07'0 0.0
2017-Sep-18 08:00N 26°06' W 080°07'0 0.0
2017-Sep-18 07:30N 26°06' W 080°07'0 0.0
2017-Sep-18 07:00N 26°06' W 080°07'0 0.0
2017-Sep-18 06:30N 26°06' W 080°07'0 0.0
2017-Sep-18 06:00N 26°06' W 080°07'0 0.0
2017-Sep-18 05:21N 26°06' W 080°07'0 0.0
2017-Sep-18 04:51N 26°06' W 080°07'0 0.0
2017-Sep-18 02:47N 26°06' W 080°07'0 0.5
2017-Sep-18 02:30N 26°06' W 080°07'3 4.1
2017-Sep-18 01:49N 26°06' W 080°04'3 7.1
2017-Sep-18 01:27N 26°08' W 080°03'1 2.9
2017-Sep-18 00:58N 26°08' W 080°04'0 0.0
2017-Sep-17 13:09N 26°08' W 080°04'0 0.0
2017-Sep-17 13:00N 26°08' W 080°04'0 0.0
2017-Sep-17 12:30N 26°08' W 080°04'0 0.0
2017-Sep-17 12:00N 26°08' W 080°04'0 0.0
2017-Sep-17 11:30N 26°08' W 080°04'0 0.0
2017-Sep-17 10:57N 26°08' W 080°04'0 0.0
2017-Sep-17 10:30N 26°08' W 080°05'0 0.0
2017-Sep-17 10:00N 26°08' W 080°05'0 0.0
2017-Sep-17 09:30N 26°08' W 080°05'0 0.1
2017-Sep-17 09:00N 26°08' W 080°05'0 0.0
2017-Sep-17 08:30N 26°08' W 080°05'0 0.1
2017-Sep-17 08:00N 26°08' W 080°05'0 0.0
2017-Sep-17 07:30N 26°08' W 080°05'0 0.1
2017-Sep-17 07:00N 26°08' W 080°05'0 0.1
2017-Sep-17 06:27N 26°08' W 080°05'0 0.1
2017-Sep-17 06:00N 26°08' W 080°05'0 0.1
2017-Sep-17 05:27N 26°08' W 080°05'0 0.0
2017-Sep-17 05:00N 26°08' W 080°05'0 0.0
2017-Sep-17 04:30N 26°08' W 080°05'0 0.0
2017-Sep-17 04:00N 26°08' W 080°05'0 0.0
2017-Sep-17 03:30N 26°08' W 080°04'0 0.0
2017-Sep-17 03:00N 26°08' W 080°04'0 0.0
2017-Sep-17 02:30N 26°08' W 080°04'0 0.0
2017-Sep-17 02:00N 26°08' W 080°04'0 0.0
2017-Sep-17 01:30N 26°08' W 080°04'0 0.0
2017-Sep-17 01:00N 26°08' W 080°04'0 0.0
2017-Sep-17 00:30N 26°08' W 080°04'0 0.0
2017-Sep-17 00:00N 26°08' W 080°04'0 0.0
2017-Sep-16 23:30N 26°08' W 080°04'0 0.0
2017-Sep-16 23:00N 26°08' W 080°04'0 0.0
2017-Sep-16 22:30N 26°08' W 080°04'0 0.0
2017-Sep-16 22:00N 26°08' W 080°04'0 0.0
2017-Sep-16 21:27N 26°08' W 080°04'0 0.0
2017-Sep-16 21:00N 26°08' W 080°04'0 0.1
2017-Sep-16 20:30N 26°08' W 080°04'1 2.5
2017-Sep-16 20:00N 26°07' W 080°04'0 0.8
2017-Sep-16 19:30N 26°07' W 080°04'0 0.5
2017-Sep-16 19:00N 26°06' W 080°04'1 1.8
2017-Sep-16 18:30N 26°07' W 080°04'1 2.0
2017-Sep-16 18:00N 26°08' W 080°03'1 2.9
2017-Sep-16 17:30N 26°10' W 080°03'1 2.9
2017-Sep-16 17:00N 26°11' W 080°03'2 3.6
2017-Sep-16 16:30N 26°13' W 080°03'4 7.7
2017-Sep-16 16:00N 26°17' W 080°03'5 9.0
2017-Sep-16 15:30N 26°21' W 080°02'4 8.7
2017-Sep-16 15:00N 26°26' W 080°02'21 8.0
2017-Sep-16 12:25N 26°46' W 079°60'4 8.6
2017-Sep-16 12:00N 26°50' W 080°01'4 7.9
2017-Sep-16 11:30N 26°54' W 080°01'4 8.3
2017-Sep-16 11:00N 26°58' W 080°02'4 8.3
2017-Sep-16 10:30N 27°02' W 080°03'260 8.8
2017-Sep-15 04:57N 31°22' W 080°01'14 9.4
2017-Sep-15 03:26N 31°35' W 079°54'4 9.3
2017-Sep-15 03:00N 31°39' W 079°52'5 9.2
2017-Sep-15 02:30N 31°43' W 079°49'361 7.7
2017-Sep-13 03:28N 36°46' W 075°52'4 8.2
2017-Sep-13 02:56N 36°51' W 075°55'4 8.5
2017-Sep-13 02:30N 36°54' W 075°56'5 9.5
2017-Sep-13 02:00N 36°57' W 076°01'16 8.8
2017-Sep-13 00:12N 36°58' W 076°21'0 0.1
2017-Sep-13 00:00N 36°58' W 076°21'0 0.0
2017-Sep-12 13:33N 36°58' W 076°21'0 0.1
2017-Sep-12 13:30N 36°58' W 076°21'0 0.1
2017-Sep-12 13:00N 36°58' W 076°21'0 0.0
2017-Sep-11 11:39N 36°58' W 076°21'0 0.0
2017-Sep-11 11:21N 36°58' W 076°21'0 0.0
2017-Sep-11 10:45N 36°58' W 076°21'0 0.0
2017-Sep-11 09:51N 36°58' W 076°21'0 0.0
2017-Sep-11 09:27N 36°58' W 076°21'0 0.0
2017-Sep-11 08:57N 36°58' W 076°21'0 0.0
2017-Sep-10 12:57N 36°57' W 076°21'0 0.0
2017-Sep-10 08:03N 36°57' W 076°21'0 0.2
2017-Sep-10 07:45N 36°57' W 076°21'0 0.1
2017-Sep-10 07:27N 36°57' W 076°21'0 0.1
2017-Sep-10 06:57N 36°57' W 076°21'0 0.0
2017-Sep-10 05:21N 36°57' W 076°21'0 0.0
2017-Sep-10 02:57N 36°57' W 076°21'0 0.0
2017-Sep-10 00:42N 36°57' W 076°21'0 0.0
2017-Sep-10 00:24N 36°57' W 076°21'0 0.0
2017-Sep-09 18:27N 36°57' W 076°21'0 0.0
2017-Sep-09 11:36N 36°57' W 076°21'0 0.1
2017-Sep-09 08:51N 36°57' W 076°21'0 0.0
2017-Sep-09 08:27N 36°57' W 076°21'0 0.0
2017-Sep-09 07:57N 36°57' W 076°21'0 0.0
2017-Sep-09 07:30N 36°57' W 076°21'0 0.0
2017-Sep-09 07:00N 36°58' W 076°21'  
Track history (hours):
 
Tides and Currents Weather Stations Pressure Air Temp Water Temp Dewpoint Dewpoint Depression Visibility Wind Speed Wind Dir Waves Ship Positions

Frederick E. Bouchard

Owner: Tug Frederick E. Bouchard Corp., Melville, NY. More information available from US FCC via Universal Licensing System and Coast Guard Vessel Documentation Center.

Last reported at 2017-Sep-19 06:32 UTC. Time now 2017-Oct-19 05:35 UTC.
Position N 25°18' W 080°05'.
Warning: this ship's position is 29 days out of date.

Length 155 m; draft 7 m.

Type: Tug. MMSI: 367728870.

Date/timePositionNaut miles runAvg speedWind from/ knotsBaromVisibWave heightAir tempDewpointWater temp
2017-Sep-19 06:32N 25°18' W 080°05'0 9.2
2017-Sep-19 06:30N 25°18' W 080°05'4 9.0
2017-Sep-19 06:00N 25°22' W 080°03'5 9.8
2017-Sep-19 05:30N 25°27' W 080°02'510.7
2017-Sep-19 05:00N 25°32' W 080°02'510.6
2017-Sep-19 04:30N 25°38' W 080°02'510.1
2017-Sep-19 04:00N 25°43' W 080°03'5 9.5
2017-Sep-19 03:30N 25°47' W 080°04'5 9.3
2017-Sep-19 03:00N 25°52' W 080°04'5 9.0
2017-Sep-19 02:30N 25°56' W 080°04'4 9.0
2017-Sep-19 02:00N 26°01' W 080°04'5 9.2
2017-Sep-19 01:30N 26°05' W 080°05'2 4.2
2017-Sep-19 01:00N 26°06' W 080°07'0 0.0
2017-Sep-19 00:30N 26°06' W 080°07'0 0.0
2017-Sep-19 00:00N 26°06' W 080°07'0 0.0
2017-Sep-18 15:27N 26°06' W 080°07'0 0.0
2017-Sep-18 14:54N 26°06' W 080°07'0 0.0
2017-Sep-18 14:27N 26°06' W 080°07'0 0.0
2017-Sep-18 13:54N 26°06' W 080°07'0 0.0
2017-Sep-18 13:27N 26°06' W 080°07'0 0.0
2017-Sep-18 12:57N 26°06' W 080°07'0 0.0
2017-Sep-18 12:27N 26°06' W 080°07'0 0.0
2017-Sep-18 12:00N 26°06' W 080°07'0 0.0
2017-Sep-18 11:27N 26°06' W 080°07'0 0.0
2017-Sep-18 11:00N 26°06' W 080°07'0 0.0
2017-Sep-18 10:30N 26°06' W 080°07'0 0.0
2017-Sep-18 10:00N 26°06' W 080°07'0 0.0
2017-Sep-18 09:30N 26°06' W 080°07'0 0.0
2017-Sep-18 08:57N 26°06' W 080°07'0 0.0
2017-Sep-18 08:30N 26°06' W 080°07'0 0.0
2017-Sep-18 08:00N 26°06' W 080°07'0 0.0
2017-Sep-18 07:30N 26°06' W 080°07'0 0.0
2017-Sep-18 07:00N 26°06' W 080°07'0 0.0
2017-Sep-18 06:30N 26°06' W 080°07'0 0.0
2017-Sep-18 06:00N 26°06' W 080°07'0 0.0
2017-Sep-18 05:21N 26°06' W 080°07'0 0.0
2017-Sep-18 04:51N 26°06' W 080°07'0 0.0
2017-Sep-18 02:47N 26°06' W 080°07'0 0.5
2017-Sep-18 02:30N 26°06' W 080°07'3 4.1
2017-Sep-18 01:49N 26°06' W 080°04'3 7.1
2017-Sep-18 01:27N 26°08' W 080°03'1 2.9
2017-Sep-18 00:58N 26°08' W 080°04'0 0.0
2017-Sep-17 13:09N 26°08' W 080°04'0 0.0
2017-Sep-17 13:00N 26°08' W 080°04'0 0.0
2017-Sep-17 12:30N 26°08' W 080°04'0 0.0
2017-Sep-17 12:00N 26°08' W 080°04'0 0.0
2017-Sep-17 11:30N 26°08' W 080°04'0 0.0
2017-Sep-17 10:57N 26°08' W 080°04'0 0.0
2017-Sep-17 10:30N 26°08' W 080°05'0 0.0
2017-Sep-17 10:00N 26°08' W 080°05'0 0.0
2017-Sep-17 09:30N 26°08' W 080°05'0 0.1
2017-Sep-17 09:00N 26°08' W 080°05'0 0.0
2017-Sep-17 08:30N 26°08' W 080°05'0 0.1
2017-Sep-17 08:00N 26°08' W 080°05'0 0.0
2017-Sep-17 07:30N 26°08' W 080°05'0 0.1
2017-Sep-17 07:00N 26°08' W 080°05'0 0.1
2017-Sep-17 06:27N 26°08' W 080°05'0 0.1
2017-Sep-17 06:00N 26°08' W 080°05'0 0.1
2017-Sep-17 05:27N 26°08' W 080°05'0 0.0
2017-Sep-17 05:00N 26°08' W 080°05'0 0.0
2017-Sep-17 04:30N 26°08' W 080°05'0 0.0
2017-Sep-17 04:00N 26°08' W 080°05'0 0.0
2017-Sep-17 03:30N 26°08' W 080°04'0 0.0
2017-Sep-17 03:00N 26°08' W 080°04'0 0.0
2017-Sep-17 02:30N 26°08' W 080°04'0 0.0
2017-Sep-17 02:00N 26°08' W 080°04'0 0.0
2017-Sep-17 01:30N 26°08' W 080°04'0 0.0
2017-Sep-17 01:00N 26°08' W 080°04'0 0.0
2017-Sep-17 00:30N 26°08' W 080°04'0 0.0
2017-Sep-17 00:00N 26°08' W 080°04'0 0.0
2017-Sep-16 23:30N 26°08' W 080°04'0 0.0
2017-Sep-16 23:00N 26°08' W 080°04'0 0.0
2017-Sep-16 22:30N 26°08' W 080°04'0 0.0
2017-Sep-16 22:00N 26°08' W 080°04'0 0.0
2017-Sep-16 21:27N 26°08' W 080°04'0 0.0
2017-Sep-16 21:00N 26°08' W 080°04'0 0.1
2017-Sep-16 20:30N 26°08' W 080°04'1 2.5
2017-Sep-16 20:00N 26°07' W 080°04'0 0.8
2017-Sep-16 19:30N 26°07' W 080°04'0 0.5
2017-Sep-16 19:00N 26°06' W 080°04'1 1.8
2017-Sep-16 18:30N 26°07' W 080°04'1 2.0
2017-Sep-16 18:00N 26°08' W 080°03'1 2.9
2017-Sep-16 17:30N 26°10' W 080°03'1 2.9
2017-Sep-16 17:00N 26°11' W 080°03'2 3.6
2017-Sep-16 16:30N 26°13' W 080°03'4 7.7
2017-Sep-16 16:00N 26°17' W 080°03'5 9.0
2017-Sep-16 15:30N 26°21' W 080°02'4 8.7
2017-Sep-16 15:00N 26°26' W 080°02'21 8.0
2017-Sep-16 12:25N 26°46' W 079°60'4 8.6
2017-Sep-16 12:00N 26°50' W 080°01'4 7.9
2017-Sep-16 11:30N 26°54' W 080°01'4 8.3
2017-Sep-16 11:00N 26°58' W 080°02'4 8.3
2017-Sep-16 10:30N 27°02' W 080°03'260 8.8
2017-Sep-15 04:57N 31°22' W 080°01'14 9.4
2017-Sep-15 03:26N 31°35' W 079°54'4 9.3
2017-Sep-15 03:00N 31°39' W 079°52'5 9.2
2017-Sep-15 02:30N 31°43' W 079°49'361 7.7
2017-Sep-13 03:28N 36°46' W 075°52'4 8.2
2017-Sep-13 02:56N 36°51' W 075°55'4 8.5
2017-Sep-13 02:30N 36°54' W 075°56'5 9.5
2017-Sep-13 02:00N 36°57' W 076°01'16 8.8
2017-Sep-13 00:12N 36°58' W 076°21'0 0.1
2017-Sep-13 00:00N 36°58' W 076°21'0 0.0
2017-Sep-12 13:33N 36°58' W 076°21'0 0.1
2017-Sep-12 13:30N 36°58' W 076°21'0 0.1
2017-Sep-12 13:00N 36°58' W 076°21'0 0.0
2017-Sep-11 11:39N 36°58' W 076°21'0 0.0
2017-Sep-11 11:21N 36°58' W 076°21'0 0.0
2017-Sep-11 10:45N 36°58' W 076°21'0 0.0
2017-Sep-11 09:51N 36°58' W 076°21'0 0.0
2017-Sep-11 09:27N 36°58' W 076°21'0 0.0
2017-Sep-11 08:57N 36°58' W 076°21'0 0.0
2017-Sep-10 12:57N 36°57' W 076°21'0 0.0
2017-Sep-10 08:03N 36°57' W 076°21'0 0.2
2017-Sep-10 07:45N 36°57' W 076°21'0 0.1
2017-Sep-10 07:27N 36°57' W 076°21'0 0.1
2017-Sep-10 06:57N 36°57' W 076°21'0 0.0
2017-Sep-10 05:21N 36°57' W 076°21'0 0.0
2017-Sep-10 02:57N 36°57' W 076°21'0 0.0
2017-Sep-10 00:42N 36°57' W 076°21'0 0.0
2017-Sep-10 00:24N 36°57' W 076°21'0 0.0
2017-Sep-09 18:27N 36°57' W 076°21'0 0.0
2017-Sep-09 11:36N 36°57' W 076°21'0 0.1
2017-Sep-09 08:51N 36°57' W 076°21'0 0.0
2017-Sep-09 08:27N 36°57' W 076°21'0 0.0
2017-Sep-09 07:57N 36°57' W 076°21'0 0.0
2017-Sep-09 07:30N 36°57' W 076°21'0 0.0
2017-Sep-09 07:00N 36°58' W 076°21'  

Dump ship's entire track history